sensor_id;sensor_type;location;lat;lon;timestamp;pressure;altitude;pressure_sealevel;temperature;humidity
81232;BME280;70703;55.652;37.710;2023-06-19T00:00:08;100431.88;;;18.26;38.37
81232;BME280;70703;55.652;37.710;2023-06-19T00:00:23;100428.34;;;18.26;38.15
81232;BME280;70703;55.652;37.710;2023-06-19T00:00:35;100414.06;;;18.18;38.42
81232;BME280;70703;55.652;37.710;2023-06-19T00:00:49;100421.72;;;18.21;38.33
81232;BME280;70703;55.652;37.710;2023-06-19T00:01:01;100419.59;;;18.24;38.60
81232;BME280;70703;55.652;37.710;2023-06-19T00:01:14;100424.78;;;18.25;38.30
81232;BME280;70703;55.652;37.710;2023-06-19T00:01:25;100433.31;;;18.29;38.55
81232;BME280;70703;55.652;37.710;2023-06-19T00:01:37;100431.66;;;18.28;38.60
81232;BME280;70703;55.652;37.710;2023-06-19T00:01:49;100437.06;;;18.28;38.57
81232;BME280;70703;55.652;37.710;2023-06-19T00:02:00;100427.31;;;18.27;38.72
81232;BME280;70703;55.652;37.710;2023-06-19T00:02:12;100424.19;;;18.23;38.48
81232;BME280;70703;55.652;37.710;2023-06-19T00:02:24;100429.41;;;18.25;38.71
81232;BME280;70703;55.652;37.710;2023-06-19T00:02:35;100421.28;;;18.25;38.70
81232;BME280;70703;55.652;37.710;2023-06-19T00:02:47;100419.00;;;18.21;38.50
81232;BME280;70703;55.652;37.710;2023-06-19T00:02:59;100435.44;;;18.27;38.60
81232;BME280;70703;55.652;37.710;2023-06-19T00:03:12;100422.94;;;18.26;38.54
81232;BME280;70703;55.652;37.710;2023-06-19T00:03:25;100422.31;;;18.24;38.59
81232;BME280;70703;55.652;37.710;2023-06-19T00:03:37;100427.50;;;18.25;38.54
81232;BME280;70703;55.652;37.710;2023-06-19T00:03:51;100429.16;;;18.26;38.34
81232;BME280;70703;55.652;37.710;2023-06-19T00:04:04;100421.72;;;18.21;38.15
81232;BME280;70703;55.652;37.710;2023-06-19T00:04:15;100427.31;;;18.27;38.44
81232;BME280;70703;55.652;37.710;2023-06-19T00:04:27;100407.25;;;18.09;38.34
81232;BME280;70703;55.652;37.710;2023-06-19T00:04:38;100430.44;;;18.24;38.18
81232;BME280;70703;55.652;37.710;2023-06-19T00:04:50;100391.91;;;18.03;38.57
81232;BME280;70703;55.652;37.710;2023-06-19T00:05:02;100415.09;;;18.17;38.32
81232;BME280;70703;55.652;37.710;2023-06-19T00:05:15;100420.22;;;18.26;38.67
81232;BME280;70703;55.652;37.710;2023-06-19T00:05:28;100430.00;;;18.27;38.43
81232;BME280;70703;55.652;37.710;2023-06-19T00:05:39;100431.66;;;18.28;38.33
81232;BME280;70703;55.652;37.710;2023-06-19T00:05:52;100431.66;;;18.28;38.38
81232;BME280;70703;55.652;37.710;2023-06-19T00:06:03;100431.28;;;18.24;38.46
81232;BME280;70703;55.652;37.710;2023-06-19T00:06:14;100425.03;;;18.24;38.74
81232;BME280;70703;55.652;37.710;2023-06-19T00:06:25;100405.16;;;18.11;38.68
81232;BME280;70703;55.652;37.710;2023-06-19T00:06:38;100423.81;;;18.19;38.34
81232;BME280;70703;55.652;37.710;2023-06-19T00:06:50;100427.59;;;18.18;38.43
81232;BME280;70703;55.652;37.710;2023-06-19T00:07:04;100428.63;;;18.17;38.65
81232;BME280;70703;55.652;37.710;2023-06-19T00:07:16;100422.63;;;18.15;38.34
81232;BME280;70703;55.652;37.710;2023-06-19T00:07:28;100424.72;;;18.13;38.42
81232;BME280;70703;55.652;37.710;2023-06-19T00:07:39;100422.28;;;18.05;38.54
81232;BME280;70703;55.652;37.710;2023-06-19T00:07:50;100431.78;;;18.14;38.38
81232;BME280;70703;55.652;37.710;2023-06-19T00:08:02;100426.81;;;18.11;38.77
81232;BME280;70703;55.652;37.710;2023-06-19T00:08:17;100423.88;;;18.13;38.49
81232;BME280;70703;55.652;37.710;2023-06-19T00:08:30;100426.59;;;18.13;38.35
81232;BME280;70703;55.652;37.710;2023-06-19T00:08:42;100424.72;;;18.13;38.62
81232;BME280;70703;55.652;37.710;2023-06-19T00:08:54;100428.03;;;18.15;38.44
81232;BME280;70703;55.652;37.710;2023-06-19T00:09:10;100418.25;;;18.14;38.65
81232;BME280;70703;55.652;37.710;2023-06-19T00:09:22;100433.22;;;18.17;38.36
81232;BME280;70703;55.652;37.710;2023-06-19T00:09:34;100419.28;;;18.13;38.46
81232;BME280;70703;55.652;37.710;2023-06-19T00:09:48;100434.84;;;18.18;38.49
81232;BME280;70703;55.652;37.710;2023-06-19T00:10:00;100439.47;;;18.17;38.71
81232;BME280;70703;55.652;37.710;2023-06-19T00:10:13;100433.22;;;18.17;38.64
81232;BME280;70703;55.652;37.710;2023-06-19T00:10:25;100431.34;;;18.17;38.67
81232;BME280;70703;55.652;37.710;2023-06-19T00:10:37;100426.38;;;18.14;38.72
81232;BME280;70703;55.652;37.710;2023-06-19T00:10:49;100392.63;;;17.92;38.54
81232;BME280;70703;55.652;37.710;2023-06-19T00:11:02;100435.09;;;18.16;38.65
81232;BME280;70703;55.652;37.710;2023-06-19T00:11:14;100416.84;;;18.05;38.49
81232;BME280;70703;55.652;37.710;2023-06-19T00:11:25;100428.44;;;18.12;38.63
81232;BME280;70703;55.652;37.710;2023-06-19T00:11:38;100441.75;;;18.14;38.45
81232;BME280;70703;55.652;37.710;2023-06-19T00:11:50;100438.25;;;18.13;38.62
81232;BME280;70703;55.652;37.710;2023-06-19T00:12:02;100438.25;;;18.13;38.44
81232;BME280;70703;55.652;37.710;2023-06-19T00:12:15;100434.72;;;18.13;38.52
81232;BME280;70703;55.652;37.710;2023-06-19T00:12:27;100425.16;;;18.10;38.62
81232;BME280;70703;55.652;37.710;2023-06-19T00:12:38;100438.00;;;18.15;38.80
81232;BME280;70703;55.652;37.710;2023-06-19T00:12:50;100433.44;;;18.15;38.57
81232;BME280;70703;55.652;37.710;2023-06-19T00:13:01;100428.03;;;18.15;38.50
81232;BME280;70703;55.652;37.710;2023-06-19T00:13:13;100428.03;;;18.15;38.75
81232;BME280;70703;55.652;37.710;2023-06-19T00:13:25;100428.03;;;18.15;38.45
81232;BME280;70703;55.652;37.710;2023-06-19T00:13:37;100428.44;;;18.12;38.68
81232;BME280;70703;55.652;37.710;2023-06-19T00:13:50;100405.72;;;17.95;38.61
81232;BME280;70703;55.652;37.710;2023-06-19T00:14:02;100428.44;;;18.12;38.51
81232;BME280;70703;55.652;37.710;2023-06-19T00:14:13;100423.03;;;18.12;38.80
81232;BME280;70703;55.652;37.710;2023-06-19T00:14:26;100428.44;;;18.12;38.77
81232;BME280;70703;55.652;37.710;2023-06-19T00:14:37;100425.97;;;18.11;38.61
81232;BME280;70703;55.652;37.710;2023-06-19T00:14:48;100406.09;;;17.98;38.63
81232;BME280;70703;55.652;37.710;2023-06-19T00:15:00;100433.28;;;18.10;38.79
81232;BME280;70703;55.652;37.710;2023-06-19T00:15:12;100435.16;;;18.10;38.76
81232;BME280;70703;55.652;37.710;2023-06-19T00:15:24;100389.53;;;17.81;38.57
81232;BME280;70703;55.652;37.710;2023-06-19T00:15:39;100431.25;;;18.06;38.70
81232;BME280;70703;55.652;37.710;2023-06-19T00:15:51;100429.78;;;18.03;38.79
81232;BME280;70703;55.652;37.710;2023-06-19T00:16:03;100432.66;;;18.08;38.84
81232;BME280;70703;55.652;37.710;2023-06-19T00:16:17;100430.38;;;18.05;39.01
81232;BME280;70703;55.652;37.710;2023-06-19T00:16:30;100419.41;;;18.00;38.71
81232;BME280;70703;55.652;37.710;2023-06-19T00:16:41;100394.91;;;17.88;38.79
81232;BME280;70703;55.652;37.710;2023-06-19T00:16:53;100435.16;;;18.10;38.95
81232;BME280;70703;55.652;37.710;2023-06-19T00:17:06;100429.75;;;18.10;39.00
81232;BME280;70703;55.652;37.710;2023-06-19T00:17:20;100432.47;;;18.10;38.82
81232;BME280;70703;55.652;37.710;2023-06-19T00:17:32;100434.31;;;18.09;38.76
81232;BME280;70703;55.652;37.710;2023-06-19T00:17:44;100432.47;;;18.10;38.75
81232;BME280;70703;55.652;37.710;2023-06-19T00:17:56;100428.91;;;18.09;38.87
81232;BME280;70703;55.652;37.710;2023-06-19T00:18:07;100432.66;;;18.08;38.44
81232;BME280;70703;55.652;37.710;2023-06-19T00:18:21;100428.31;;;18.07;38.76
81232;BME280;70703;55.652;37.710;2023-06-19T00:18:33;100427.25;;;18.08;38.41
81232;BME280;70703;55.652;37.710;2023-06-19T00:18:51;100426.88;;;18.04;38.55
81232;BME280;70703;55.652;37.710;2023-06-19T00:19:07;100431.00;;;18.07;38.65
81232;BME280;70703;55.652;37.710;2023-06-19T00:19:19;100432.06;;;18.06;38.71
81232;BME280;70703;55.652;37.710;2023-06-19T00:19:30;100425.81;;;18.06;38.63
81232;BME280;70703;55.652;37.710;2023-06-19T00:19:42;100427.69;;;18.05;38.79
81232;BME280;70703;55.652;37.710;2023-06-19T00:19:54;100429.34;;;18.06;38.49
81232;BME280;70703;55.652;37.710;2023-06-19T00:20:07;100417.75;;;17.99;38.90
81232;BME280;70703;55.652;37.710;2023-06-19T00:20:20;100430.84;;;18.02;38.94
81232;BME280;70703;55.652;37.710;2023-06-19T00:20:33;100427.31;;;18.01;38.89
81232;BME280;70703;55.652;37.710;2023-06-19T00:20:45;100433.09;;;18.05;38.92
81232;BME280;70703;55.652;37.710;2023-06-19T00:20:58;100430.63;;;18.03;38.96
81232;BME280;70703;55.652;37.710;2023-06-19T00:21:10;100414.41;;;17.97;39.04
81232;BME280;70703;55.652;37.710;2023-06-19T00:21:21;100418.19;;;17.96;39.03
81232;BME280;70703;55.652;37.710;2023-06-19T00:21:35;100437.06;;;18.02;39.08
81232;BME280;70703;55.652;37.710;2023-06-19T00:21:48;100430.63;;;18.03;38.96
81232;BME280;70703;55.652;37.710;2023-06-19T00:22:02;100431.44;;;18.04;38.74
81232;BME280;70703;55.652;37.710;2023-06-19T00:22:14;100436.25;;;18.02;38.83
81232;BME280;70703;55.652;37.710;2023-06-19T00:22:26;100426.03;;;18.04;39.11
81232;BME280;70703;55.652;37.710;2023-06-19T00:22:39;100435.81;;;18.05;39.01
81232;BME280;70703;55.652;37.710;2023-06-19T00:22:51;100433.09;;;18.05;38.62
81232;BME280;70703;55.652;37.710;2023-06-19T00:23:03;100432.28;;;18.04;38.96
81232;BME280;70703;55.652;37.710;2023-06-19T00:23:14;100434.13;;;18.04;38.76
81232;BME280;70703;55.652;37.710;2023-06-19T00:23:28;100424.38;;;18.03;38.83
81232;BME280;70703;55.652;37.710;2023-06-19T00:23:39;100432.50;;;18.03;38.66
81232;BME280;70703;55.652;37.710;2023-06-19T00:23:51;100426.47;;;18.01;38.97
81232;BME280;70703;55.652;37.710;2023-06-19T00:24:03;100423.53;;;18.02;38.71
81232;BME280;70703;55.652;37.710;2023-06-19T00:24:15;100427.91;;;18.03;38.65
81232;BME280;70703;55.652;37.710;2023-06-19T00:24:28;100428.94;;;18.02;38.76
81232;BME280;70703;55.652;37.710;2023-06-19T00:24:39;100420.28;;;17.94;38.79
81232;BME280;70703;55.652;37.710;2023-06-19T00:24:50;100429.41;;;17.99;38.96
81232;BME280;70703;55.652;37.710;2023-06-19T00:25:04;100431.06;;;18.00;38.63
81232;BME280;70703;55.652;37.710;2023-06-19T00:25:16;100422.31;;;17.98;38.71
81232;BME280;70703;55.652;37.710;2023-06-19T00:25:27;100427.31;;;18.01;38.92
81232;BME280;70703;55.652;37.710;2023-06-19T00:25:40;100426.47;;;18.01;38.97
81232;BME280;70703;55.652;37.710;2023-06-19T00:25:52;100423.16;;;17.99;39.06
81232;BME280;70703;55.652;37.710;2023-06-19T00:26:04;100429.41;;;17.99;38.74
81232;BME280;70703;55.652;37.710;2023-06-19T00:26:15;100426.91;;;17.98;38.75
81232;BME280;70703;55.652;37.710;2023-06-19T00:26:28;100426.69;;;17.99;38.98
81232;BME280;70703;55.652;37.710;2023-06-19T00:26:41;100426.69;;;17.99;39.00
81232;BME280;70703;55.652;37.710;2023-06-19T00:26:54;100429.16;;;18.01;38.71
81232;BME280;70703;55.652;37.710;2023-06-19T00:27:06;100413.19;;;17.93;38.69
81232;BME280;70703;55.652;37.710;2023-06-19T00:27:21;100425.88;;;17.99;38.75
81232;BME280;70703;55.652;37.710;2023-06-19T00:27:34;100426.09;;;17.97;39.12
81232;BME280;70703;55.652;37.710;2023-06-19T00:27:46;100425.88;;;17.99;38.78
81232;BME280;70703;55.652;37.710;2023-06-19T00:27:58;100427.97;;;17.97;38.85
81232;BME280;70703;55.652;37.710;2023-06-19T00:28:10;100425.25;;;17.97;38.87
81232;BME280;70703;55.652;37.710;2023-06-19T00:28:24;100421.50;;;17.98;39.18
81232;BME280;70703;55.652;37.710;2023-06-19T00:28:35;100427.72;;;17.98;39.27
81232;BME280;70703;55.652;37.710;2023-06-19T00:28:52;100425.91;;;17.92;39.31
81232;BME280;70703;55.652;37.710;2023-06-19T00:29:04;100431.09;;;17.94;39.18
81232;BME280;70703;55.652;37.710;2023-06-19T00:29:16;100426.31;;;17.96;38.99
81232;BME280;70703;55.652;37.710;2023-06-19T00:29:27;100433.59;;;17.95;39.15
81232;BME280;70703;55.652;37.710;2023-06-19T00:29:41;100384.69;;;17.65;39.16
81232;BME280;70703;55.652;37.710;2023-06-19T00:29:53;100427.38;;;17.95;38.92
81232;BME280;70703;55.652;37.710;2023-06-19T00:30:06;100430.88;;;17.95;38.85
81232;BME280;70703;55.652;37.710;2023-06-19T00:30:18;100430.06;;;17.95;39.03
81232;BME280;70703;55.652;37.710;2023-06-19T00:30:31;100419.03;;;17.90;38.88
81232;BME280;70703;55.652;37.710;2023-06-19T00:30:43;100429.25;;;17.94;39.08
81232;BME280;70703;55.652;37.710;2023-06-19T00:30:55;100420.72;;;17.91;38.91
81232;BME280;70703;55.652;37.710;2023-06-19T00:31:08;100430.50;;;17.92;38.95
81232;BME280;70703;55.652;37.710;2023-06-19T00:31:20;100394.84;;;17.69;38.80
81232;BME280;70703;55.652;37.710;2023-06-19T00:31:34;100408.69;;;17.80;38.80
81232;BME280;70703;55.652;37.710;2023-06-19T00:31:48;100423.84;;;17.87;38.89
81232;BME280;70703;55.652;37.710;2023-06-19T00:32:00;100433.81;;;17.87;38.94
81232;BME280;70703;55.652;37.710;2023-06-19T00:32:11;100426.56;;;17.87;39.09
81232;BME280;70703;55.652;37.710;2023-06-19T00:32:26;100427.59;;;17.86;38.91
81232;BME280;70703;55.652;37.710;2023-06-19T00:32:39;100424.66;;;17.88;39.19
81232;BME280;70703;55.652;37.710;2023-06-19T00:32:58;100434.03;;;17.85;39.16
81232;BME280;70703;55.652;37.710;2023-06-19T00:33:13;100424.28;;;17.84;38.92
81232;BME280;70703;55.652;37.710;2023-06-19T00:33:27;100423.22;;;17.85;39.15
81232;BME280;70703;55.652;37.710;2023-06-19T00:33:38;100433.00;;;17.86;38.85
81232;BME280;70703;55.652;37.710;2023-06-19T00:33:49;100430.31;;;17.86;39.07
81232;BME280;70703;55.652;37.710;2023-06-19T00:34:02;100433.47;;;17.83;38.84
81232;BME280;70703;55.652;37.710;2023-06-19T00:34:14;100384.94;;;17.57;38.91
81232;BME280;70703;55.652;37.710;2023-06-19T00:34:28;100431.13;;;17.87;39.04
81232;BME280;70703;55.652;37.710;2023-06-19T00:34:40;100405.06;;;17.67;38.88
81232;BME280;70703;55.652;37.710;2023-06-19T00:34:53;100431.13;;;17.87;38.97
81232;BME280;70703;55.652;37.710;2023-06-19T00:35:07;100431.97;;;17.87;39.07
81232;BME280;70703;55.652;37.710;2023-06-19T00:35:18;100410.81;;;17.78;39.10
81232;BME280;70703;55.652;37.710;2023-06-19T00:35:32;100427.81;;;17.85;38.92
81232;BME280;70703;55.652;37.710;2023-06-19T00:35:44;100422.84;;;17.82;39.02
81232;BME280;70703;55.652;37.710;2023-06-19T00:35:58;100429.47;;;17.86;39.27
81232;BME280;70703;55.652;37.710;2023-06-19T00:36:11;100424.13;;;17.79;39.11
81232;BME280;70703;55.652;37.710;2023-06-19T00:36:23;100427.22;;;17.83;39.10
81232;BME280;70703;55.652;37.710;2023-06-19T00:36:37;100436.97;;;17.84;39.13
81232;BME280;70703;55.652;37.710;2023-06-19T00:36:52;100431.56;;;17.84;39.32
81232;BME280;70703;55.652;37.710;2023-06-19T00:37:07;100430.75;;;17.83;39.22
81232;BME280;70703;55.652;37.710;2023-06-19T00:37:21;100399.06;;;17.59;39.28
81232;BME280;70703;55.652;37.710;2023-06-19T00:37:34;100436.97;;;17.84;39.25
81232;BME280;70703;55.652;37.710;2023-06-19T00:37:46;100431.78;;;17.82;39.12
81232;BME280;70703;55.652;37.710;2023-06-19T00:37:57;100431.78;;;17.82;39.38
81232;BME280;70703;55.652;37.710;2023-06-19T00:38:11;100438.25;;;17.81;39.48
81232;BME280;70703;55.652;37.710;2023-06-19T00:38:23;100431.19;;;17.80;39.49
81232;BME280;70703;55.652;37.710;2023-06-19T00:38:35;100431.78;;;17.82;39.46
81232;BME280;70703;55.652;37.710;2023-06-19T00:38:47;100435.34;;;17.83;39.23
81232;BME280;70703;55.652;37.710;2023-06-19T00:38:59;100430.75;;;17.83;39.16
81232;BME280;70703;55.652;37.710;2023-06-19T00:39:12;100432.81;;;17.81;39.38
81232;BME280;70703;55.652;37.710;2023-06-19T00:39:24;100441.56;;;17.83;39.25
81232;BME280;70703;55.652;37.710;2023-06-19T00:39:36;100436.16;;;17.83;38.95
81232;BME280;70703;55.652;37.710;2023-06-19T00:39:47;100436.16;;;17.83;39.41
81232;BME280;70703;55.652;37.710;2023-06-19T00:39:58;100439.09;;;17.82;39.31
81232;BME280;70703;55.652;37.710;2023-06-19T00:40:16;100431.19;;;17.80;39.38
81232;BME280;70703;55.652;37.710;2023-06-19T00:40:32;100437.19;;;17.82;39.41
81232;BME280;70703;55.652;37.710;2023-06-19T00:40:46;100430.75;;;17.83;39.56
81232;BME280;70703;55.652;37.710;2023-06-19T00:40:58;100430.97;;;17.82;39.21
81232;BME280;70703;55.652;37.710;2023-06-19T00:41:10;100420.41;;;17.74;39.15
81232;BME280;70703;55.652;37.710;2023-06-19T00:41:22;100433.28;;;17.78;39.41
81232;BME280;70703;55.652;37.710;2023-06-19T00:41:35;100436.38;;;17.82;39.54
81232;BME280;70703;55.652;37.710;2023-06-19T00:41:47;100427.84;;;17.78;39.51
81232;BME280;70703;55.652;37.710;2023-06-19T00:41:59;100425.16;;;17.78;39.53
81232;BME280;70703;55.652;37.710;2023-06-19T00:42:11;100430.13;;;17.81;39.22
81232;BME280;70703;55.652;37.710;2023-06-19T00:42:24;100431.19;;;17.80;39.33
81232;BME280;70703;55.652;37.710;2023-06-19T00:42:35;100438.25;;;17.81;39.36
81232;BME280;70703;55.652;37.710;2023-06-19T00:42:47;100436.19;;;17.77;39.30
81232;BME280;70703;55.652;37.710;2023-06-19T00:43:00;100435.53;;;17.81;39.73
81232;BME280;70703;55.652;37.710;2023-06-19T00:43:11;100430.56;;;17.78;39.44
81232;BME280;70703;55.652;37.710;2023-06-19T00:43:24;100434.50;;;17.82;39.58
81232;BME280;70703;55.652;37.710;2023-06-19T00:43:36;100428.50;;;17.80;39.85
81232;BME280;70703;55.652;37.710;2023-06-19T00:43:49;100428.50;;;17.80;39.79
81232;BME280;70703;55.652;37.710;2023-06-19T00:44:03;100432.81;;;17.81;40.00
81232;BME280;70703;55.652;37.710;2023-06-19T00:44:14;100438.25;;;17.81;39.69
81232;BME280;70703;55.652;37.710;2023-06-19T00:44:26;100434.13;;;17.79;39.82
81232;BME280;70703;55.652;37.710;2023-06-19T00:44:37;100439.91;;;17.82;39.96
81232;BME280;70703;55.652;37.710;2023-06-19T00:44:49;100439.31;;;17.80;39.79
81232;BME280;70703;55.652;37.710;2023-06-19T00:45:00;100435.75;;;17.80;40.21
81232;BME280;70703;55.652;37.710;2023-06-19T00:45:12;100433.28;;;17.78;40.04
81232;BME280;70703;55.652;37.710;2023-06-19T00:45:24;100431.81;;;17.76;39.82
81232;BME280;70703;55.652;37.710;2023-06-19T00:45:36;100439.53;;;17.79;39.73
81232;BME280;70703;55.652;37.710;2023-06-19T00:45:49;100435.16;;;17.78;39.80
81232;BME280;70703;55.652;37.710;2023-06-19T00:46:02;100437.66;;;17.79;39.91
81232;BME280;70703;55.652;37.710;2023-06-19T00:46:14;100440.34;;;17.79;39.89
81232;BME280;70703;55.652;37.710;2023-06-19T00:46:26;100434.94;;;17.79;39.79
81232;BME280;70703;55.652;37.710;2023-06-19T00:46:40;100438.69;;;17.78;39.90
81232;BME280;70703;55.652;37.710;2023-06-19T00:47:00;100438.69;;;17.78;39.94
81232;BME280;70703;55.652;37.710;2023-06-19T00:47:14;100437.66;;;17.79;39.78
81232;BME280;70703;55.652;37.710;2023-06-19T00:47:26;100441.16;;;17.80;40.13
81232;BME280;70703;55.652;37.710;2023-06-19T00:47:38;100437.88;;;17.78;40.03
81232;BME280;70703;55.652;37.710;2023-06-19T00:47:50;100431.63;;;17.77;39.95
81232;BME280;70703;55.652;37.710;2023-06-19T00:48:04;100403.28;;;17.55;39.80
81232;BME280;70703;55.652;37.710;2023-06-19T00:48:16;100442.47;;;17.77;39.88
81232;BME280;70703;55.652;37.710;2023-06-19T00:48:30;100438.91;;;17.77;40.11
81232;BME280;70703;55.652;37.710;2023-06-19T00:48:42;100428.13;;;17.70;40.29
81232;BME280;70703;55.652;37.710;2023-06-19T00:48:54;100440.34;;;17.79;40.14
81232;BME280;70703;55.652;37.710;2023-06-19T00:49:06;100444.09;;;17.78;40.19
81232;BME280;70703;55.652;37.710;2023-06-19T00:49:18;100434.75;;;17.74;40.48
81232;BME280;70703;55.652;37.710;2023-06-19T00:49:30;100435.97;;;17.78;40.27
81232;BME280;70703;55.652;37.710;2023-06-19T00:49:44;100443.28;;;17.78;40.50
81232;BME280;70703;55.652;37.710;2023-06-19T00:49:57;100435.97;;;17.78;40.58
81232;BME280;70703;55.652;37.710;2023-06-19T00:50:10;100431.22;;;17.74;40.70
81232;BME280;70703;55.652;37.710;2023-06-19T00:50:22;100420.44;;;17.67;40.58
81232;BME280;70703;55.652;37.710;2023-06-19T00:50:34;100433.34;;;17.72;40.55
81232;BME280;70703;55.652;37.710;2023-06-19T00:50:48;100442.47;;;17.77;40.82
81232;BME280;70703;55.652;37.710;2023-06-19T00:51:02;100432.03;;;17.74;40.98
81232;BME280;70703;55.652;37.710;2023-06-19T00:51:14;100439.13;;;17.75;40.98
81232;BME280;70703;55.652;37.710;2023-06-19T00:51:26;100442.47;;;17.77;40.89
81232;BME280;70703;55.652;37.710;2023-06-19T00:51:38;100429.97;;;17.76;40.98
81232;BME280;70703;55.652;37.710;2023-06-19T00:51:51;100425.84;;;17.67;40.90
81232;BME280;70703;55.652;37.710;2023-06-19T00:52:05;100439.13;;;17.75;41.15
81232;BME280;70703;55.652;37.710;2023-06-19T00:52:17;100443.50;;;17.76;41.30
81232;BME280;70703;55.652;37.710;2023-06-19T00:52:29;100435.19;;;17.71;41.09
81232;BME280;70703;55.652;37.710;2023-06-19T00:52:41;100440.16;;;17.74;41.08
81232;BME280;70703;55.652;37.710;2023-06-19T00:52:54;100427.94;;;17.72;41.26
81232;BME280;70703;55.652;37.710;2023-06-19T00:53:06;100433.94;;;17.74;41.16
81232;BME280;70703;55.652;37.710;2023-06-19T00:53:19;100441.00;;;17.75;41.27
81232;BME280;70703;55.652;37.710;2023-06-19T00:53:33;100441.00;;;17.75;41.16
81232;BME280;70703;55.652;37.710;2023-06-19T00:53:46;100443.72;;;17.75;41.27
81232;BME280;70703;55.652;37.710;2023-06-19T00:53:58;100444.16;;;17.72;41.21
81232;BME280;70703;55.652;37.710;2023-06-19T00:54:10;100446.66;;;17.73;41.50
81232;BME280;70703;55.652;37.710;2023-06-19T00:54:21;100441.22;;;17.73;41.40
81232;BME280;70703;55.652;37.710;2023-06-19T00:54:33;100398.97;;;17.40;41.28
81232;BME280;70703;55.652;37.710;2023-06-19T00:54:46;100446.66;;;17.73;41.63
81232;BME280;70703;55.652;37.710;2023-06-19T00:54:58;100446.66;;;17.73;41.46
81232;BME280;70703;55.652;37.710;2023-06-19T00:55:10;100444.97;;;17.72;41.78
81232;BME280;70703;55.652;37.710;2023-06-19T00:55:25;100442.50;;;17.70;41.79
81232;BME280;70703;55.652;37.710;2023-06-19T00:55:37;100444.16;;;17.72;41.70
81232;BME280;70703;55.652;37.710;2023-06-19T00:55:51;100414.75;;;17.50;41.74
81232;BME280;70703;55.652;37.710;2023-06-19T00:56:04;100440.59;;;17.71;41.76
81232;BME280;70703;55.652;37.710;2023-06-19T00:56:17;100444.34;;;17.70;41.84
81232;BME280;70703;55.652;37.710;2023-06-19T00:56:28;100449.16;;;17.68;41.70
81232;BME280;70703;55.652;37.710;2023-06-19T00:56:42;100449.97;;;17.68;41.63
81232;BME280;70703;55.652;37.710;2023-06-19T00:56:54;100447.28;;;17.68;41.69
81232;BME280;70703;55.652;37.710;2023-06-19T00:57:07;100426.34;;;17.57;41.72
81232;BME280;70703;55.652;37.710;2023-06-19T00:57:19;100442.09;;;17.67;41.63
81232;BME280;70703;55.652;37.710;2023-06-19T00:57:31;100443.16;;;17.66;41.90
81232;BME280;70703;55.652;37.710;2023-06-19T00:57:44;100444.19;;;17.65;41.79
81232;BME280;70703;55.652;37.710;2023-06-19T00:57:56;100438.59;;;17.60;41.93
81232;BME280;70703;55.652;37.710;2023-06-19T00:58:07;100434.22;;;17.59;41.75
81232;BME280;70703;55.652;37.710;2023-06-19T00:58:20;100437.94;;;17.64;41.90
81232;BME280;70703;55.652;37.710;2023-06-19T00:58:32;100442.53;;;17.64;41.80
81232;BME280;70703;55.652;37.710;2023-06-19T00:58:44;100436.94;;;17.59;41.73
81232;BME280;70703;55.652;37.710;2023-06-19T00:58:56;100440.03;;;17.62;41.65
81232;BME280;70703;55.652;37.710;2023-06-19T00:59:11;100439.22;;;17.62;41.31
81232;BME280;70703;55.652;37.710;2023-06-19T00:59:25;100433.19;;;17.60;41.28
81232;BME280;70703;55.652;37.710;2023-06-19T00:59:41;100441.94;;;17.62;41.39
81232;BME280;70703;55.652;37.710;2023-06-19T00:59:55;100438.00;;;17.58;41.00
81232;BME280;70703;55.652;37.710;2023-06-19T01:00:13;100439.63;;;17.59;41.35
81232;BME280;70703;55.652;37.710;2023-06-19T01:00:28;100443.41;;;17.58;41.25
81232;BME280;70703;55.652;37.710;2023-06-19T01:00:47;100441.31;;;17.60;41.29
81232;BME280;70703;55.652;37.710;2023-06-19T01:01:05;100439.03;;;17.57;41.38
81232;BME280;70703;55.652;37.710;2023-06-19T01:01:21;100439.03;;;17.57;41.64
81232;BME280;70703;55.652;37.710;2023-06-19T01:01:35;100438.00;;;17.58;41.72
81232;BME280;70703;55.652;37.710;2023-06-19T01:01:51;100443.41;;;17.58;41.73
81232;BME280;70703;55.652;37.710;2023-06-19T01:02:05;100437.16;;;17.57;41.87
81232;BME280;70703;55.652;37.710;2023-06-19T01:02:17;100418.31;;;17.44;41.86
81232;BME280;70703;55.652;37.710;2023-06-19T01:02:33;100447.16;;;17.57;41.84
81232;BME280;70703;55.652;37.710;2023-06-19T01:02:46;100438.63;;;17.53;41.76
81232;BME280;70703;55.652;37.710;2023-06-19T01:02:58;100445.50;;;17.56;41.69
81232;BME280;70703;55.652;37.710;2023-06-19T01:03:09;100439.25;;;17.55;41.75
81232;BME280;70703;55.652;37.710;2023-06-19T01:03:22;100435.13;;;17.52;42.19
81232;BME280;70703;55.652;37.710;2023-06-19T01:03:35;100416.88;;;17.41;41.99
81232;BME280;70703;55.652;37.710;2023-06-19T01:03:47;100437.81;;;17.52;42.02
81232;BME280;70703;55.652;37.710;2023-06-19T01:03:59;100445.94;;;17.52;42.07
81232;BME280;70703;55.652;37.710;2023-06-19T01:04:14;100435.13;;;17.52;41.93
81232;BME280;70703;55.652;37.710;2023-06-19T01:04:25;100439.47;;;17.53;42.21
81232;BME280;70703;55.652;37.710;2023-06-19T01:04:37;100406.16;;;17.28;42.11
81232;BME280;70703;55.652;37.710;2023-06-19T01:04:49;100432.84;;;17.49;42.27
81232;BME280;70703;55.652;37.710;2023-06-19T01:05:02;100395.59;;;17.19;42.27
81232;BME280;70703;55.652;37.710;2023-06-19T01:05:15;100438.84;;;17.51;41.87
81232;BME280;70703;55.652;37.710;2023-06-19T01:05:27;100438.03;;;17.51;42.16